sensor_id;sensor_type;location;lat;lon;timestamp;temperature;humidity
6954;DHT22;3516;47.980;8.808;2024-02-04T00:01:17;2.80;99.90
6954;DHT22;3516;47.980;8.808;2024-02-04T00:03:44;2.90;99.90
6954;DHT22;3516;47.980;8.808;2024-02-04T00:06:11;2.90;99.90
6954;DHT22;3516;47.980;8.808;2024-02-04T00:08:37;2.90;99.90
6954;DHT22;3516;47.980;8.808;2024-02-04T00:11:04;3.00;99.90
6954;DHT22;3516;47.980;8.808;2024-02-04T00:13:33;3.10;99.90
6954;DHT22;3516;47.980;8.808;2024-02-04T00:15:59;3.10;99.90
6954;DHT22;3516;47.980;8.808;2024-02-04T00:18:27;3.20;99.90
6954;DHT22;3516;47.980;8.808;2024-02-04T00:20:54;3.20;99.90
6954;DHT22;3516;47.980;8.808;2024-02-04T00:23:20;3.20;99.90
6954;DHT22;3516;47.980;8.808;2024-02-04T00:25:47;3.30;99.90
6954;DHT22;3516;47.980;8.808;2024-02-04T00:28:13;3.30;99.90
6954;DHT22;3516;47.980;8.808;2024-02-04T00:30:40;3.30;99.90
6954;DHT22;3516;47.980;8.808;2024-02-04T00:33:06;3.30;99.90
6954;DHT22;3516;47.980;8.808;2024-02-04T00:35:34;3.30;99.90
6954;DHT22;3516;47.980;8.808;2024-02-04T00:38:01;3.40;99.90
6954;DHT22;3516;47.980;8.808;2024-02-04T00:40:28;3.40;99.90
6954;DHT22;3516;47.980;8.808;2024-02-04T00:42:55;3.40;99.90
6954;DHT22;3516;47.980;8.808;2024-02-04T00:45:21;3.40;99.90
6954;DHT22;3516;47.980;8.808;2024-02-04T00:47:49;3.50;99.90
6954;DHT22;3516;47.980;8.808;2024-02-04T00:50:15;3.50;99.90
6954;DHT22;3516;47.980;8.808;2024-02-04T06:32:12;2.30;99.90
6954;DHT22;3516;47.980;8.808;2024-02-04T06:34:38;2.30;99.90
6954;DHT22;3516;47.980;8.808;2024-02-04T06:37:05;2.40;99.90
6954;DHT22;3516;47.980;8.808;2024-02-04T06:39:32;2.30;99.90
6954;DHT22;3516;47.980;8.808;2024-02-04T06:41:58;2.30;99.90
6954;DHT22;3516;47.980;8.808;2024-02-04T06:44:25;2.30;99.90
6954;DHT22;3516;47.980;8.808;2024-02-04T06:46:51;2.40;99.90
6954;DHT22;3516;47.980;8.808;2024-02-04T06:49:19;2.40;99.90
6954;DHT22;3516;47.980;8.808;2024-02-04T06:51:46;2.40;99.90
6954;DHT22;3516;47.980;8.808;2024-02-04T06:54:13;2.40;99.90
6954;DHT22;3516;47.980;8.808;2024-02-04T06:56:39;2.40;99.90
6954;DHT22;3516;47.980;8.808;2024-02-04T06:59:06;2.40;99.90
6954;DHT22;3516;47.980;8.808;2024-02-04T07:01:32;2.40;99.90
6954;DHT22;3516;47.980;8.808;2024-02-04T07:03:59;2.50;99.90
6954;DHT22;3516;47.980;8.808;2024-02-04T07:06:27;2.50;99.90
6954;DHT22;3516;47.980;8.808;2024-02-04T07:08:53;2.50;99.90
6954;DHT22;3516;47.980;8.808;2024-02-04T07:11:20;2.50;99.90
6954;DHT22;3516;47.980;8.808;2024-02-04T07:13:46;2.50;99.90
6954;DHT22;3516;47.980;8.808;2024-02-04T07:16:13;2.50;99.90
6954;DHT22;3516;47.980;8.808;2024-02-04T07:18:39;2.60;99.90
6954;DHT22;3516;47.980;8.808;2024-02-04T07:21:06;2.60;99.90
6954;DHT22;3516;47.980;8.808;2024-02-04T07:23:34;2.60;99.90
6954;DHT22;3516;47.980;8.808;2024-02-04T07:26:00;2.70;99.90
6954;DHT22;3516;47.980;8.808;2024-02-04T07:28:27;2.70;99.90
6954;DHT22;3516;47.980;8.808;2024-02-04T07:30:53;2.80;99.90
6954;DHT22;3516;47.980;8.808;2024-02-04T07:33:20;2.80;99.90
6954;DHT22;3516;47.980;8.808;2024-02-04T07:35:47;2.90;99.90
6954;DHT22;3516;47.980;8.808;2024-02-04T07:38:13;2.90;99.90
6954;DHT22;3516;47.980;8.808;2024-02-04T07:40:41;3.00;99.90
6954;DHT22;3516;47.980;8.808;2024-02-04T07:43:08;3.00;99.90
6954;DHT22;3516;47.980;8.808;2024-02-04T07:45:34;3.00;99.90
6954;DHT22;3516;47.980;8.808;2024-02-04T07:48:01;3.10;99.90
6954;DHT22;3516;47.980;8.808;2024-02-04T07:50:28;3.20;99.90
6954;DHT22;3516;47.980;8.808;2024-02-04T07:52:54;3.30;99.90
6954;DHT22;3516;47.980;8.808;2024-02-04T07:55:21;3.40;99.90
6954;DHT22;3516;47.980;8.808;2024-02-04T07:57:49;3.40;99.90
6954;DHT22;3516;47.980;8.808;2024-02-04T08:00:15;3.50;99.90
6954;DHT22;3516;47.980;8.808;2024-02-04T08:02:43;3.60;99.90
6954;DHT22;3516;47.980;8.808;2024-02-04T08:05:10;3.70;99.90
6954;DHT22;3516;47.980;8.808;2024-02-04T08:07:36;3.70;99.90
6954;DHT22;3516;47.980;8.808;2024-02-04T08:10:03;3.80;99.90
6954;DHT22;3516;47.980;8.808;2024-02-04T08:12:30;3.80;99.90
6954;DHT22;3516;47.980;8.808;2024-02-04T08:14:58;3.70;99.90
6954;DHT22;3516;47.980;8.808;2024-02-04T08:17:24;3.70;99.90
6954;DHT22;3516;47.980;8.808;2024-02-04T08:19:51;3.70;99.90
6954;DHT22;3516;47.980;8.808;2024-02-04T08:22:18;3.80;99.90
6954;DHT22;3516;47.980;8.808;2024-02-04T08:24:45;3.80;99.90
6954;DHT22;3516;47.980;8.808;2024-02-04T08:27:12;3.80;99.90
6954;DHT22;3516;47.980;8.808;2024-02-04T08:29:41;3.80;99.90
6954;DHT22;3516;47.980;8.808;2024-02-04T08:32:09;3.80;99.90
6954;DHT22;3516;47.980;8.808;2024-02-04T08:34:36;3.80;99.90
6954;DHT22;3516;47.980;8.808;2024-02-04T08:37:02;3.90;99.90
6954;DHT22;3516;47.980;8.808;2024-02-04T08:39:29;3.90;99.90
6954;DHT22;3516;47.980;8.808;2024-02-04T08:41:56;4.00;99.90
6954;DHT22;3516;47.980;8.808;2024-02-04T08:44:22;4.00;99.90
6954;DHT22;3516;47.980;8.808;2024-02-04T08:46:49;4.10;99.90
6954;DHT22;3516;47.980;8.808;2024-02-04T08:49:17;4.20;99.90
6954;DHT22;3516;47.980;8.808;2024-02-04T08:51:43;4.20;99.90
6954;DHT22;3516;47.980;8.808;2024-02-04T08:54:10;4.30;99.90
6954;DHT22;3516;47.980;8.808;2024-02-04T08:56:37;4.40;99.90
6954;DHT22;3516;47.980;8.808;2024-02-04T08:59:03;4.50;99.90
6954;DHT22;3516;47.980;8.808;2024-02-04T09:01:31;4.60;99.90
6954;DHT22;3516;47.980;8.808;2024-02-04T09:03:58;4.70;99.90
6954;DHT22;3516;47.980;8.808;2024-02-04T09:06:25;4.70;99.90
6954;DHT22;3516;47.980;8.808;2024-02-04T09:08:52;4.80;99.90
6954;DHT22;3516;47.980;8.808;2024-02-04T09:11:18;4.90;99.90
6954;DHT22;3516;47.980;8.808;2024-02-04T09:13:46;5.00;99.90
6954;DHT22;3516;47.980;8.808;2024-02-04T09:16:12;5.00;99.90
6954;DHT22;3516;47.980;8.808;2024-02-04T09:18:39;5.10;99.90
6954;DHT22;3516;47.980;8.808;2024-02-04T09:21:06;5.20;99.90
6954;DHT22;3516;47.980;8.808;2024-02-04T09:23:34;5.40;99.90
6954;DHT22;3516;47.980;8.808;2024-02-04T09:26:00;5.70;99.90
6954;DHT22;3516;47.980;8.808;2024-02-04T09:28:27;5.90;99.90
6954;DHT22;3516;47.980;8.808;2024-02-04T09:30:53;6.20;99.90
6954;DHT22;3516;47.980;8.808;2024-02-04T09:33:20;6.80;99.90
6954;DHT22;3516;47.980;8.808;2024-02-04T09:35:46;7.40;99.90
6954;DHT22;3516;47.980;8.808;2024-02-04T09:38:14;8.10;99.90
6954;DHT22;3516;47.980;8.808;2024-02-04T09:40:42;8.90;99.90
6954;DHT22;3516;47.980;8.808;2024-02-04T09:43:09;9.60;99.90
6954;DHT22;3516;47.980;8.808;2024-02-04T09:45:35;9.90;99.90
6954;DHT22;3516;47.980;8.808;2024-02-04T09:48:02;10.00;99.90
6954;DHT22;3516;47.980;8.808;2024-02-04T09:50:29;9.90;99.90
6954;DHT22;3516;47.980;8.808;2024-02-04T09:52:58;9.60;99.90
6954;DHT22;3516;47.980;8.808;2024-02-04T09:55:25;9.20;99.90
6954;DHT22;3516;47.980;8.808;2024-02-04T09:57:54;8.90;99.90
6954;DHT22;3516;47.980;8.808;2024-02-04T10:00:20;8.50;99.90
6954;DHT22;3516;47.980;8.808;2024-02-04T10:02:47;8.10;99.90
6954;DHT22;3516;47.980;8.808;2024-02-04T10:05:14;7.70;99.90
6954;DHT22;3516;47.980;8.808;2024-02-04T10:07:41;7.40;99.90
6954;DHT22;3516;47.980;8.808;2024-02-04T10:10:08;7.40;99.90
6954;DHT22;3516;47.980;8.808;2024-02-04T10:12:35;7.20;99.90
6954;DHT22;3516;47.980;8.808;2024-02-04T10:15:05;7.10;99.90
6954;DHT22;3516;47.980;8.808;2024-02-04T10:17:32;7.10;99.90
6954;DHT22;3516;47.980;8.808;2024-02-04T10:19:59;7.00;99.90
6954;DHT22;3516;47.980;8.808;2024-02-04T10:22:26;6.80;99.90
6954;DHT22;3516;47.980;8.808;2024-02-04T10:24:53;7.10;99.90
6954;DHT22;3516;47.980;8.808;2024-02-04T10:27:19;6.80;99.90
6954;DHT22;3516;47.980;8.808;2024-02-04T10:29:46;6.90;99.90
6954;DHT22;3516;47.980;8.808;2024-02-04T10:32:14;6.90;99.90
6954;DHT22;3516;47.980;8.808;2024-02-04T10:34:41;6.80;99.90
6954;DHT22;3516;47.980;8.808;2024-02-04T10:37:07;6.80;99.90
6954;DHT22;3516;47.980;8.808;2024-02-04T10:39:34;6.70;99.90
6954;DHT22;3516;47.980;8.808;2024-02-04T10:42:01;6.70;99.90
6954;DHT22;3516;47.980;8.808;2024-02-04T10:44:28;6.60;99.90
6954;DHT22;3516;47.980;8.808;2024-02-04T10:46:56;6.70;99.90
6954;DHT22;3516;47.980;8.808;2024-02-04T11:31:51;7.20;99.90
6954;DHT22;3516;47.980;8.808;2024-02-04T11:34:17;7.30;99.90
6954;DHT22;3516;47.980;8.808;2024-02-04T11:36:44;7.40;99.90
6954;DHT22;3516;47.980;8.808;2024-02-04T11:39:13;7.40;99.90
6954;DHT22;3516;47.980;8.808;2024-02-04T11:41:44;7.40;99.90
6954;DHT22;3516;47.980;8.808;2024-02-04T11:44:11;7.40;99.90
6954;DHT22;3516;47.980;8.808;2024-02-04T11:46:37;7.40;99.90
6954;DHT22;3516;47.980;8.808;2024-02-04T11:49:13;7.40;99.90
6954;DHT22;3516;47.980;8.808;2024-02-04T11:51:40;7.50;99.90
6954;DHT22;3516;47.980;8.808;2024-02-04T11:54:07;7.50;99.90
6954;DHT22;3516;47.980;8.808;2024-02-04T11:56:34;7.60;99.90
6954;DHT22;3516;47.980;8.808;2024-02-04T11:59:01;7.60;99.90
6954;DHT22;3516;47.980;8.808;2024-02-04T12:01:30;7.70;99.90
6954;DHT22;3516;47.980;8.808;2024-02-04T12:03:57;7.70;99.90
6954;DHT22;3516;47.980;8.808;2024-02-04T12:06:25;7.70;99.90
6954;DHT22;3516;47.980;8.808;2024-02-04T12:08:51;7.80;99.90
6954;DHT22;3516;47.980;8.808;2024-02-04T12:11:18;7.90;99.90
6954;DHT22;3516;47.980;8.808;2024-02-04T12:13:45;8.00;99.90
6954;DHT22;3516;47.980;8.808;2024-02-04T12:16:11;8.00;99.90
6954;DHT22;3516;47.980;8.808;2024-02-04T12:18:47;8.20;99.90
6954;DHT22;3516;47.980;8.808;2024-02-04T12:21:13;8.30;99.90
6954;DHT22;3516;47.980;8.808;2024-02-04T12:23:41;8.30;99.90
6954;DHT22;3516;47.980;8.808;2024-02-04T12:26:08;8.30;99.90
6954;DHT22;3516;47.980;8.808;2024-02-04T12:28:34;8.40;99.90
6954;DHT22;3516;47.980;8.808;2024-02-04T12:31:01;8.40;99.90
6954;DHT22;3516;47.980;8.808;2024-02-04T12:33:28;8.50;99.90
6954;DHT22;3516;47.980;8.808;2024-02-04T12:35:55;8.50;99.90
6954;DHT22;3516;47.980;8.808;2024-02-04T12:38:23;8.60;99.90
6954;DHT22;3516;47.980;8.808;2024-02-04T12:40:51;8.70;99.90
6954;DHT22;3516;47.980;8.808;2024-02-04T12:43:17;8.90;99.90
6954;DHT22;3516;47.980;8.808;2024-02-04T12:45:44;9.00;99.90
6954;DHT22;3516;47.980;8.808;2024-02-04T12:48:13;9.20;99.90
6954;DHT22;3516;47.980;8.808;2024-02-04T12:50:40;9.30;99.90
6954;DHT22;3516;47.980;8.808;2024-02-04T12:53:07;9.30;99.90
6954;DHT22;3516;47.980;8.808;2024-02-04T12:55:37;9.30;99.90
6954;DHT22;3516;47.980;8.808;2024-02-04T12:58:05;9.50;99.90
6954;DHT22;3516;47.980;8.808;2024-02-04T13:00:33;9.60;99.90
6954;DHT22;3516;47.980;8.808;2024-02-04T13:03:00;9.70;99.90
6954;DHT22;3516;47.980;8.808;2024-02-04T13:05:26;9.90;99.90
6954;DHT22;3516;47.980;8.808;2024-02-04T13:07:55;10.00;99.90
6954;DHT22;3516;47.980;8.808;2024-02-04T13:10:23;10.10;99.90
6954;DHT22;3516;47.980;8.808;2024-02-04T13:12:59;10.10;99.90
6954;DHT22;3516;47.980;8.808;2024-02-04T13:15:28;10.10;99.90
6954;DHT22;3516;47.980;8.808;2024-02-04T13:17:54;10.10;99.90
6954;DHT22;3516;47.980;8.808;2024-02-04T13:20:21;10.10;99.90
6954;DHT22;3516;47.980;8.808;2024-02-04T13:22:48;10.00;99.90
6954;DHT22;3516;47.980;8.808;2024-02-04T13:25:14;10.00;99.90
6954;DHT22;3516;47.980;8.808;2024-02-04T13:27:41;10.00;99.90
6954;DHT22;3516;47.980;8.808;2024-02-04T13:30:08;9.90;99.90
6954;DHT22;3516;47.980;8.808;2024-02-04T13:32:39;9.90;99.90
6954;DHT22;3516;47.980;8.808;2024-02-04T13:35:06;9.90;99.90
6954;DHT22;3516;47.980;8.808;2024-02-04T13:37:34;9.80;99.90
6954;DHT22;3516;47.980;8.808;2024-02-04T13:40:01;9.70;99.90
6954;DHT22;3516;47.980;8.808;2024-02-04T13:42:28;9.70;99.90
6954;DHT22;3516;47.980;8.808;2024-02-04T13:44:55;9.70;99.90
6954;DHT22;3516;47.980;8.808;2024-02-04T13:47:21;9.60;99.90
6954;DHT22;3516;47.980;8.808;2024-02-04T13:49:49;9.50;99.90
6954;DHT22;3516;47.980;8.808;2024-02-04T13:52:16;9.50;99.90
6954;DHT22;3516;47.980;8.808;2024-02-04T13:54:42;9.50;99.90
6954;DHT22;3516;47.980;8.808;2024-02-04T13:57:09;9.50;99.90
6954;DHT22;3516;47.980;8.808;2024-02-04T13:59:36;9.40;99.90
6954;DHT22;3516;47.980;8.808;2024-02-04T14:02:02;9.40;99.90
6954;DHT22;3516;47.980;8.808;2024-02-04T14:04:30;9.40;99.90
6954;DHT22;3516;47.980;8.808;2024-02-04T14:06:58;9.40;99.90
6954;DHT22;3516;47.980;8.808;2024-02-04T14:09:24;9.40;99.90
6954;DHT22;3516;47.980;8.808;2024-02-04T14:11:51;9.40;99.90
6954;DHT22;3516;47.980;8.808;2024-02-04T14:14:19;9.40;99.90
6954;DHT22;3516;47.980;8.808;2024-02-04T14:16:46;9.40;99.90
6954;DHT22;3516;47.980;8.808;2024-02-04T14:19:13;9.40;99.90
6954;DHT22;3516;47.980;8.808;2024-02-04T14:21:40;9.40;99.90
6954;DHT22;3516;47.980;8.808;2024-02-04T14:24:08;9.40;99.90
6954;DHT22;3516;47.980;8.808;2024-02-04T14:26:35;9.40;99.90
6954;DHT22;3516;47.980;8.808;2024-02-04T14:29:01;9.30;99.90
6954;DHT22;3516;47.980;8.808;2024-02-04T14:31:28;9.30;99.90
6954;DHT22;3516;47.980;8.808;2024-02-04T14:33:55;9.20;99.90
6954;DHT22;3516;47.980;8.808;2024-02-04T14:36:21;9.20;99.90
6954;DHT22;3516;47.980;8.808;2024-02-04T14:38:48;9.10;99.90
6954;DHT22;3516;47.980;8.808;2024-02-04T14:41:16;9.10;99.90
6954;DHT22;3516;47.980;8.808;2024-02-04T14:43:42;9.00;99.90
6954;DHT22;3516;47.980;8.808;2024-02-04T14:46:09;9.00;99.90
6954;DHT22;3516;47.980;8.808;2024-02-04T14:48:36;9.00;99.90
6954;DHT22;3516;47.980;8.808;2024-02-04T14:51:02;9.00;99.90
6954;DHT22;3516;47.980;8.808;2024-02-04T14:53:29;9.00;99.90
6954;DHT22;3516;47.980;8.808;2024-02-04T14:55:55;8.90;99.90
6954;DHT22;3516;47.980;8.808;2024-02-04T14:58:23;8.90;99.90
6954;DHT22;3516;47.980;8.808;2024-02-04T15:00:50;8.90;99.90
6954;DHT22;3516;47.980;8.808;2024-02-04T15:03:16;8.90;99.90
6954;DHT22;3516;47.980;8.808;2024-02-04T15:05:42;8.80;99.90
6954;DHT22;3516;47.980;8.808;2024-02-04T15:08:09;8.80;99.90
6954;DHT22;3516;47.980;8.808;2024-02-04T15:10:35;8.70;99.90
6954;DHT22;3516;47.980;8.808;2024-02-04T15:13:03;8.60;99.90
6954;DHT22;3516;47.980;8.808;2024-02-04T15:15:31;8.60;99.90
6954;DHT22;3516;47.980;8.808;2024-02-04T15:17:58;8.60;99.90
6954;DHT22;3516;47.980;8.808;2024-02-04T15:20:25;8.50;99.90
6954;DHT22;3516;47.980;8.808;2024-02-04T15:22:51;8.50;99.90
6954;DHT22;3516;47.980;8.808;2024-02-04T15:25:18;8.40;99.90
6954;DHT22;3516;47.980;8.808;2024-02-04T15:27:45;8.40;99.90
6954;DHT22;3516;47.980;8.808;2024-02-04T15:30:13;8.40;99.90
6954;DHT22;3516;47.980;8.808;2024-02-04T15:32:41;8.30;99.90
6954;DHT22;3516;47.980;8.808;2024-02-04T15:35:08;8.30;99.90
6954;DHT22;3516;47.980;8.808;2024-02-04T15:37:35;8.20;99.90
6954;DHT22;3516;47.980;8.808;2024-02-04T15:40:02;8.20;99.90
6954;DHT22;3516;47.980;8.808;2024-02-04T15:42:28;8.10;99.90
6954;DHT22;3516;47.980;8.808;2024-02-04T15:44:55;8.10;99.90
6954;DHT22;3516;47.980;8.808;2024-02-04T15:47:22;8.00;99.90
6954;DHT22;3516;47.980;8.808;2024-02-04T15:49:50;8.00;99.90
6954;DHT22;3516;47.980;8.808;2024-02-04T15:52:17;7.90;99.90
6954;DHT22;3516;47.980;8.808;2024-02-04T15:54:44;7.80;99.90
6954;DHT22;3516;47.980;8.808;2024-02-04T15:57:11;7.80;99.90
6954;DHT22;3516;47.980;8.808;2024-02-04T15:59:41;7.70;99.90
6954;DHT22;3516;47.980;8.808;2024-02-04T16:02:12;7.70;99.90
6954;DHT22;3516;47.980;8.808;2024-02-04T16:04:39;7.60;99.90
6954;DHT22;3516;47.980;8.808;2024-02-04T16:07:07;7.50;99.90
6954;DHT22;3516;47.980;8.808;2024-02-04T16:09:34;7.50;99.90
6954;DHT22;3516;47.980;8.808;2024-02-04T16:12:08;7.40;99.90
6954;DHT22;3516;47.980;8.808;2024-02-04T16:14:35;7.30;99.90
6954;DHT22;3516;47.980;8.808;2024-02-04T16:17:03;7.20;99.90
6954;DHT22;3516;47.980;8.808;2024-02-04T16:19:30;7.10;99.90
6954;DHT22;3516;47.980;8.808;2024-02-04T16:21:57;7.10;99.90
6954;DHT22;3516;47.980;8.808;2024-02-04T16:24:25;7.00;99.90
6954;DHT22;3516;47.980;8.808;2024-02-04T16:26:51;6.90;99.90
6954;DHT22;3516;47.980;8.808;2024-02-04T16:29:18;6.90;99.90
6954;DHT22;3516;47.980;8.808;2024-02-04T16:31:44;6.80;99.90
6954;DHT22;3516;47.980;8.808;2024-02-04T16:34:11;6.70;99.90
6954;DHT22;3516;47.980;8.808;2024-02-04T16:36:37;6.60;99.90
6954;DHT22;3516;47.980;8.808;2024-02-04T16:39:04;6.60;99.90
6954;DHT22;3516;47.980;8.808;2024-02-04T16:41:32;6.50;99.90
6954;DHT22;3516;47.980;8.808;2024-02-04T16:43:58;6.40;99.90
6954;DHT22;3516;47.980;8.808;2024-02-04T16:46:25;6.40;99.90
6954;DHT22;3516;47.980;8.808;2024-02-04T16:48:51;6.30;99.90
6954;DHT22;3516;47.980;8.808;2024-02-04T16:51:18;6.20;99.90
6954;DHT22;3516;47.980;8.808;2024-02-04T16:53:45;6.20;99.90
6954;DHT22;3516;47.980;8.808;2024-02-04T16:56:12;6.10;99.90
6954;DHT22;3516;47.980;8.808;2024-02-04T16:58:44;6.00;99.90
6954;DHT22;3516;47.980;8.808;2024-02-04T17:01:11;6.00;99.90
6954;DHT22;3516;47.980;8.808;2024-02-04T17:03:38;5.90;99.90
6954;DHT22;3516;47.980;8.808;2024-02-04T17:06:05;5.80;99.90
6954;DHT22;3516;47.980;8.808;2024-02-04T17:08:33;5.80;99.90
6954;DHT22;3516;47.980;8.808;2024-02-04T17:11:00;5.70;99.90
6954;DHT22;3516;47.980;8.808;2024-02-04T17:13:27;5.70;99.90
6954;DHT22;3516;47.980;8.808;2024-02-04T17:15:55;5.60;99.90
6954;DHT22;3516;47.980;8.808;2024-02-04T17:18:25;5.60;99.90
6954;DHT22;3516;47.980;8.808;2024-02-04T17:20:53;5.50;99.90
6954;DHT22;3516;47.980;8.808;2024-02-04T17:23:21;5.50;99.90
6954;DHT22;3516;47.980;8.808;2024-02-04T17:25:52;5.40;99.90
6954;DHT22;3516;47.980;8.808;2024-02-04T17:28:21;5.40;99.90
6954;DHT22;3516;47.980;8.808;2024-02-04T17:30:48;5.30;99.90
6954;DHT22;3516;47.980;8.808;2024-02-04T17:33:17;5.30;99.90
6954;DHT22;3516;47.980;8.808;2024-02-04T17:35:44;5.30;99.90
6954;DHT22;3516;47.980;8.808;2024-02-04T17:38:13;5.30;99.90
6954;DHT22;3516;47.980;8.808;2024-02-04T17:40:40;5.20;99.90
6954;DHT22;3516;47.980;8.808;2024-02-04T17:43:07;5.20;99.90
6954;DHT22;3516;47.980;8.808;2024-02-04T17:45:36;5.10;99.90
6954;DHT22;3516;47.980;8.808;2024-02-04T17:48:02;5.00;99.90
6954;DHT22;3516;47.980;8.808;2024-02-04T17:50:31;5.00;99.90
6954;DHT22;3516;47.980;8.808;2024-02-04T17:52:57;4.90;99.90
6954;DHT22;3516;47.980;8.808;2024-02-04T17:55:24;4.80;99.90
6954;DHT22;3516;47.980;8.808;2024-02-04T17:57:51;4.80;99.90
6954;DHT22;3516;47.980;8.808;2024-02-04T18:00:17;4.70;99.90
6954;DHT22;3516;47.980;8.808;2024-02-04T18:02:44;4.60;99.90
6954;DHT22;3516;47.980;8.808;2024-02-04T18:05:11;4.60;99.90
6954;DHT22;3516;47.980;8.808;2024-02-04T18:07:39;4.50;99.90
6954;DHT22;3516;47.980;8.808;2024-02-04T18:10:06;4.50;99.90
6954;DHT22;3516;47.980;8.808;2024-02-04T18:12:33;4.40;99.90
6954;DHT22;3516;47.980;8.808;2024-02-04T18:15:00;4.40;99.90
6954;DHT22;3516;47.980;8.808;2024-02-04T18:17:26;4.30;99.90
6954;DHT22;3516;47.980;8.808;2024-02-04T18:19:53;4.30;99.90
6954;DHT22;3516;47.980;8.808;2024-02-04T18:22:19;4.30;99.90
6954;DHT22;3516;47.980;8.808;2024-02-04T18:24:48;4.30;99.90
6954;DHT22;3516;47.980;8.808;2024-02-04T18:27:14;4.30;99.90
6954;DHT22;3516;47.980;8.808;2024-02-04T18:29:41;4.30;99.90
6954;DHT22;3516;47.980;8.808;2024-02-04T18:32:08;4.20;99.90
6954;DHT22;3516;47.980;8.808;2024-02-04T18:34:35;4.20;99.90
6954;DHT22;3516;47.980;8.808;2024-02-04T18:37:01;4.10;99.90
6954;DHT22;3516;47.980;8.808;2024-02-04T18:39:28;4.00;99.90
6954;DHT22;3516;47.980;8.808;2024-02-04T18:41:57;4.00;99.90
6954;DHT22;3516;47.980;8.808;2024-02-04T18:44:24;3.90;99.90
6954;DHT22;3516;47.980;8.808;2024-02-04T18:46:51;3.80;99.90
6954;DHT22;3516;47.980;8.808;2024-02-04T18:49:17;3.80;99.90
6954;DHT22;3516;47.980;8.808;2024-02-04T18:51:44;3.80;99.90
6954;DHT22;3516;47.980;8.808;2024-02-04T18:54:11;3.80;99.90
6954;DHT22;3516;47.980;8.808;2024-02-04T18:56:41;3.80;99.90
6954;DHT22;3516;47.980;8.808;2024-02-04T18:59:09;3.70;99.90
6954;DHT22;3516;47.980;8.808;2024-02-04T19:01:36;3.70;99.90
6954;DHT22;3516;47.980;8.808;2024-02-04T19:04:04;3.70;99.90
6954;DHT22;3516;47.980;8.808;2024-02-04T19:06:31;3.70;99.90
6954;DHT22;3516;47.980;8.808;2024-02-04T19:08:57;3.70;99.90
6954;DHT22;3516;47.980;8.808;2024-02-04T19:11:24;3.70;99.90
6954;DHT22;3516;47.980;8.808;2024-02-04T19:13:50;3.60;99.90
6954;DHT22;3516;47.980;8.808;2024-02-04T19:16:22;3.60;99.90
6954;DHT22;3516;47.980;8.808;2024-02-04T19:18:49;3.60;99.90
6954;DHT22;3516;47.980;8.808;2024-02-04T19:21:16;3.60;99.90
6954;DHT22;3516;47.980;8.808;2024-02-04T19:23:46;3.50;99.90
6954;DHT22;3516;47.980;8.808;2024-02-04T19:26:12;3.50;99.90
6954;DHT22;3516;47.980;8.808;2024-02-04T19:28:40;3.40;99.90
6954;DHT22;3516;47.980;8.808;2024-02-04T19:31:07;3.40;99.90
6954;DHT22;3516;47.980;8.808;2024-02-04T19:33:35;3.40;99.90
6954;DHT22;3516;47.980;8.808;2024-02-04T19:36:02;3.40;99.90
6954;DHT22;3516;47.980;8.808;2024-02-04T19:38:28;3.40;99.90
6954;DHT22;3516;47.980;8.808;2024-02-04T19:40:55;3.30;99.90
6954;DHT22;3516;47.980;8.808;2024-02-04T19:43:21;3.30;99.90
6954;DHT22;3516;47.980;8.808;2024-02-04T19:45:48;3.30;99.90
6954;DHT22;3516;47.980;8.808;2024-02-04T19:48:15;3.30;99.90
6954;DHT22;3516;47.980;8.808;2024-02-04T19:50:43;3.30;99.90
6954;DHT22;3516;47.980;8.808;2024-02-04T19:53:09;3.30;99.90
6954;DHT22;3516;47.980;8.808;2024-02-04T19:55:36;3.20;99.90
6954;DHT22;3516;47.980;8.808;2024-02-04T19:58:02;3.20;99.90
6954;DHT22;3516;47.980;8.808;2024-02-04T20:00:29;3.20;99.90
6954;DHT22;3516;47.980;8.808;2024-02-04T20:02:56;3.10;99.90
6954;DHT22;3516;47.980;8.808;2024-02-04T20:05:22;3.10;99.90
6954;DHT22;3516;47.980;8.808;2024-02-04T20:07:50;3.10;99.90
6954;DHT22;3516;47.980;8.808;2024-02-04T20:10:17;3.00;99.90
6954;DHT22;3516;47.980;8.808;2024-02-04T20:12:43;3.10;99.90
6954;DHT22;3516;47.980;8.808;2024-02-04T20:15:13;2.90;99.90
6954;DHT22;3516;47.980;8.808;2024-02-04T20:17:40;2.90;99.90
6954;DHT22;3516;47.980;8.808;2024-02-04T20:20:07;2.80;99.90
6954;DHT22;3516;47.980;8.808;2024-02-04T20:22:34;2.80;99.90
6954;DHT22;3516;47.980;8.808;2024-02-04T20:25:02;2.80;99.90
6954;DHT22;3516;47.980;8.808;2024-02-04T20:27:28;2.80;99.90
6954;DHT22;3516;47.980;8.808;2024-02-04T20:29:55;2.70;99.90
6954;DHT22;3516;47.980;8.808;2024-02-04T20:32:22;2.70;99.90
6954;DHT22;3516;47.980;8.808;2024-02-04T20:34:48;2.70;99.90
6954;DHT22;3516;47.980;8.808;2024-02-04T20:37:15;2.70;99.90
6954;DHT22;3516;47.980;8.808;2024-02-04T20:39:42;2.60;99.90
6954;DHT22;3516;47.980;8.808;2024-02-04T20:42:10;2.60;99.90
6954;DHT22;3516;47.980;8.808;2024-02-04T20:44:39;2.60;99.90
6954;DHT22;3516;47.980;8.808;2024-02-04T20:47:08;2.60;99.90
6954;DHT22;3516;47.980;8.808;2024-02-04T20:49:34;2.50;99.90
6954;DHT22;3516;47.980;8.808;2024-02-04T20:52:01;2.50;99.90
6954;DHT22;3516;47.980;8.808;2024-02-04T20:54:27;2.40;99.90
6954;DHT22;3516;47.980;8.808;2024-02-04T20:56:55;2.40;99.90
6954;DHT22;3516;47.980;8.808;2024-02-04T20:59:22;2.30;99.90
6954;DHT22;3516;47.980;8.808;2024-02-04T21:01:49;2.30;99.90
6954;DHT22;3516;47.980;8.808;2024-02-04T21:04:16;2.20;99.90
6954;DHT22;3516;47.980;8.808;2024-02-04T21:06:42;2.20;99.90
6954;DHT22;3516;47.980;8.808;2024-02-04T21:09:09;2.20;99.90
6954;DHT22;3516;47.980;8.808;2024-02-04T21:11:35;2.20;99.90
6954;DHT22;3516;47.980;8.808;2024-02-04T21:14:02;2.20;99.90
6954;DHT22;3516;47.980;8.808;2024-02-04T21:16:30;2.20;99.90
6954;DHT22;3516;47.980;8.808;2024-02-04T21:18:56;2.20;99.90
6954;DHT22;3516;47.980;8.808;2024-02-04T21:21:23;2.20;99.90
6954;DHT22;3516;47.980;8.808;2024-02-04T21:23:49;2.20;99.90
6954;DHT22;3516;47.980;8.808;2024-02-04T21:26:16;2.30;99.90
6954;DHT22;3516;47.980;8.808;2024-02-04T21:28:43;2.20;99.90
6954;DHT22;3516;47.980;8.808;2024-02-04T21:31:09;2.20;99.90
6954;DHT22;3516;47.980;8.808;2024-02-04T21:33:37;2.20;99.90
6954;DHT22;3516;47.980;8.808;2024-02-04T21:36:08;2.10;99.90
6954;DHT22;3516;47.980;8.808;2024-02-04T21:38:34;2.10;99.90
6954;DHT22;3516;47.980;8.808;2024-02-04T21:41:01;2.00;99.90
6954;DHT22;3516;47.980;8.808;2024-02-04T21:43:27;2.00;99.90
6954;DHT22;3516;47.980;8.808;2024-02-04T21:45:54;2.00;99.90
6954;DHT22;3516;47.980;8.808;2024-02-04T21:48:21;1.90;99.90
6954;DHT22;3516;47.980;8.808;2024-02-04T21:50:50;1.90;99.90
6954;DHT22;3516;47.980;8.808;2024-02-04T21:53:17;2.00;99.90
6954;DHT22;3516;47.980;8.808;2024-02-04T21:55:43;1.90;99.90
6954;DHT22;3516;47.980;8.808;2024-02-04T21:58:10;1.80;99.90
6954;DHT22;3516;47.980;8.808;2024-02-04T22:00:37;1.80;99.90
6954;DHT22;3516;47.980;8.808;2024-02-04T22:03:03;1.80;99.90
6954;DHT22;3516;47.980;8.808;2024-02-04T22:05:30;1.70;99.90
6954;DHT22;3516;47.980;8.808;2024-02-04T22:07:59;1.70;99.90
6954;DHT22;3516;47.980;8.808;2024-02-04T22:10:26;1.70;99.90
6954;DHT22;3516;47.980;8.808;2024-02-04T22:12:52;1.70;99.90
6954;DHT22;3516;47.980;8.808;2024-02-04T22:15:19;1.70;99.90
6954;DHT22;3516;47.980;8.808;2024-02-04T22:17:46;1.60;99.90
6954;DHT22;3516;47.980;8.808;2024-02-04T22:20:13;1.60;99.90
6954;DHT22;3516;47.980;8.808;2024-02-04T22:22:40;1.60;99.90
